Time;durP1;ratioP1;P1;durP2;ratioP2;P2;SDS_P1;SDS_P2;PMS_P1;PMS_P2;Temp;Humidity;BMP_temperature;BMP_pressure;BME280_temperature;BME280_humidity;BME280_pressure;Samples;Min_cycle;Max_cycle;Signal;HPM_P1;HPM_P2
2023/09/22 00:00:18;;;;;;;;;;;15.10;99.90;;;15.12;100.00;98405.31;4971381;28;20263;-84
2023/09/22 00:02:45;;;;;;;;;;;15.00;99.90;;;15.08;100.00;98396.91;4956590;28;19922;-82
2023/09/22 00:05:14;;;;;;;;;;;15.00;99.90;;;15.04;100.00;98401.38;4972566;28;19922;-86
2023/09/22 00:07:41;;;;;;;;;;;15.00;99.90;;;14.99;100.00;98406.94;4971546;28;19918;-84
2023/09/22 00:10:08;;;;;;;;;;;15.00;99.90;;;14.98;100.00;98419.84;4971787;28;20371;-87
2023/09/22 00:12:33;;;;;;;;;;;14.90;99.90;;;14.89;100.00;98416.16;4972303;28;20361;-86
2023/09/22 00:15:00;;;;;;;;;;;14.90;99.90;;;14.94;100.00;98443.53;4951204;28;19969;-84
2023/09/22 00:17:27;;;;;;;;;;;14.90;99.90;;;14.89;100.00;98452.66;4964911;28;19921;-88
2023/09/22 00:19:53;;;;;;;;;;;14.90;99.90;;;14.87;100.00;98446.66;4954176;28;19918;-84
2023/09/22 00:22:20;;;;;;;;;;;;;;;14.84;100.00;98443.69;4952694;28;19983;-83
2023/09/22 00:24:45;;;;;;;;;;;14.80;99.90;;;14.79;100.00;98445.38;4950841;29;20385;-84
2023/09/22 00:27:11;;;;;;;;;;;14.70;99.90;;;14.68;100.00;98435.66;4968857;28;19922;-84
2023/09/22 00:29:36;;;;;;;;;;;14.60;99.90;;;14.66;100.00;98435.97;4965070;28;20378;-84
2023/09/22 00:32:03;;;;;;;;;;;14.60;99.90;;;14.63;100.00;98431.06;4935198;28;20029;-86
2023/09/22 00:34:31;;;;;;;;;;;14.60;99.90;;;14.68;100.00;98450.19;4956080;28;19918;-83
2023/09/22 00:36:57;;;;;;;;;;;14.60;99.90;;;14.68;100.00;98447.44;4971978;28;19969;-84
2023/09/22 00:39:23;;;;;;;;;;;14.60;99.90;;;14.62;100.00;98445.09;4971321;28;20322;-84
2023/09/22 00:41:53;;;;;;;;;;;14.50;99.90;;;14.63;100.00;98447.53;4971148;28;19918;-83
2023/09/22 00:44:19;;;;;;;;;;;14.50;99.90;;;14.61;100.00;98446.22;4948215;28;19946;-85
2023/09/22 00:46:45;;;;;;;;;;;14.50;99.90;;;14.57;100.00;98459.69;4957789;28;19918;-83
2023/09/22 00:49:12;;;;;;;;;;;14.50;99.90;;;14.58;100.00;98479.72;4953573;28;20297;-85
2023/09/22 00:51:38;;;;;;;;;;;14.40;99.90;;;14.57;100.00;98478.06;4969694;28;19929;-82
2023/09/22 00:54:04;;;;;;;;;;;14.40;99.90;;;14.53;100.00;98484.16;4970994;28;20290;-83
2023/09/22 00:56:30;;;;;;;;;;;14.40;99.90;;;14.49;100.00;98487.81;4945931;28;19922;-83
2023/09/22 00:58:56;;;;;;;;;;;14.40;99.90;;;14.53;100.00;98499.81;4962351;28;19922;-83
2023/09/22 01:01:23;;;;;;;;;;;14.40;99.90;;;14.46;100.00;98486.47;4971089;28;20293;-83
2023/09/22 01:03:51;;;;;;;;;;;14.40;99.90;;;14.50;100.00;98503.16;4969819;28;20016;-83
2023/09/22 01:06:20;;;;;;;;;;;14.30;99.90;;;14.55;100.00;98521.47;4969126;28;19918;-83
2023/09/22 01:08:46;;;;;;;;;;;14.30;99.90;;;14.49;100.00;98520.72;4953418;28;20392;-83
2023/09/22 01:11:13;;;;;;;;;;;14.40;99.90;;;14.52;100.00;98514.66;4945000;29;20022;-83
2023/09/22 01:13:39;;;;;;;;;;;14.40;99.90;;;14.42;100.00;98510.13;4968214;28;20008;-85
2023/09/22 01:16:04;;;;;;;;;;;14.30;99.90;;;14.49;100.00;98528.97;4968591;28;19977;-83
2023/09/22 01:18:30;;;;;;;;;;;14.30;99.90;;;14.35;100.00;98515.16;4954419;28;19929;-85
2023/09/22 01:20:59;;;;;;;;;;;14.30;99.90;;;14.34;100.00;98519.00;4964603;28;20286;-84
2023/09/22 01:23:25;;;;;;;;;;;14.30;99.90;;;14.45;100.00;98528.72;4970923;28;19988;-84
2023/09/22 01:25:52;;;;;;;;;;;14.30;99.90;;;14.37;100.00;98523.91;4969524;28;20005;-82
2023/09/22 01:28:26;;;;;;;;;;;14.20;99.90;;;14.37;100.00;98511.00;4954654;28;19954;-83
2023/09/22 01:30:51;;;;;;;;;;;14.30;99.90;;;14.40;100.00;98509.59;4953575;28;19985;-86
2023/09/22 01:33:17;;;;;;;;;;;14.20;99.90;;;14.33;100.00;98498.19;4965258;28;19925;-85
2023/09/22 01:35:43;;;;;;;;;;;14.20;99.90;;;14.38;100.00;98522.78;4952948;28;19981;-84
2023/09/22 01:38:15;;;;;;;;;;;14.20;99.90;;;14.31;100.00;98536.84;4970702;28;20378;-84
2023/09/22 01:40:42;;;;;;;;;;;14.20;99.90;;;14.25;100.00;98527.06;4954496;28;19922;-85
2023/09/22 01:43:07;;;;;;;;;;;14.10;99.90;;;14.29;100.00;98550.03;4958858;28;19914;-86
2023/09/22 01:45:33;;;;;;;;;;;14.10;99.90;;;14.27;100.00;98554.19;4970895;28;19925;-86
2023/09/22 01:47:59;;;;;;;;;;;14.10;99.90;;;14.23;100.00;98568.47;4954209;28;19917;-85
2023/09/22 01:50:25;;;;;;;;;;;14.10;99.90;;;14.21;100.00;98578.13;4937705;28;20318;-83
2023/09/22 01:52:52;;;;;;;;;;;14.10;99.90;;;14.28;100.00;98583.22;4951068;28;20295;-84
2023/09/22 01:55:19;;;;;;;;;;;14.10;99.90;;;14.23;100.00;98601.38;4919275;29;20430;-84
2023/09/22 01:57:49;;;;;;;;;;;14.10;99.90;;;14.26;100.00;98615.63;4952331;29;19923;-84
2023/09/22 02:00:15;;;;;;;;;;;14.10;99.90;;;14.34;100.00;98656.16;4945777;29;19925;-85
2023/09/22 02:02:44;;;;;;;;;;;14.20;99.90;;;14.36;100.00;98681.34;4951994;29;19918;-84
2023/09/22 02:05:11;;;;;;;;;;;14.20;99.90;;;14.39;100.00;98730.16;4933364;29;19923;-85
2023/09/22 02:07:38;;;;;;;;;;;14.20;99.90;;;14.34;100.00;98733.75;4986482;28;20378;-84
2023/09/22 02:10:05;;;;;;;;;;;14.20;99.90;;;14.33;100.00;98747.78;4951655;28;19923;-85
2023/09/22 02:12:31;;;;;;;;;;;14.20;99.90;;;14.30;100.00;98753.81;4927345;29;19923;-84
2023/09/22 02:14:57;;;;;;;;;;;14.20;99.90;;;14.32;100.00;98765.31;4955050;28;19918;-84
2023/09/22 02:17:22;;;;;;;;;;;14.20;99.90;;;14.33;100.00;98786.97;4955415;28;20378;-85
2023/09/22 02:19:48;;;;;;;;;;;14.20;99.90;;;14.41;100.00;98821.19;4955194;29;19922;-84
2023/09/22 02:22:14;;;;;;;;;;;14.20;99.90;;;14.41;100.00;98853.28;4953820;29;19918;-84
2023/09/22 02:24:40;;;;;;;;;;;14.30;99.90;;;14.44;100.00;98864.50;4970510;28;19918;-87
2023/09/22 02:27:06;;;;;;;;;;;14.30;99.90;;;14.39;100.00;98875.53;4953764;29;20524;-88
2023/09/22 02:29:32;;;;;;;;;;;14.20;99.90;;;14.35;100.00;98885.44;4954834;29;19957;-86
2023/09/22 02:31:58;;;;;;;;;;;14.20;99.90;;;14.30;100.00;98885.47;4950737;29;19947;-85
2023/09/22 02:34:23;;;;;;;;;;;14.20;99.90;;;14.29;100.00;98886.56;4954419;29;19918;-85
2023/09/22 02:36:49;;;;;;;;;;;14.20;99.90;;;14.27;100.00;98892.34;4949966;29;20077;-87
2023/09/22 02:39:18;;;;;;;;;;;14.20;99.90;;;14.29;100.00;98911.25;4949123;29;20286;-85
2023/09/22 02:41:44;;;;;;;;;;;14.10;99.90;;;14.25;100.00;98900.03;4953171;29;19919;-86
2023/09/22 02:44:12;;;;;;;;;;;14.20;99.90;;;14.28;100.00;98904.97;4969671;28;19929;-86
2023/09/22 02:46:37;;;;;;;;;;;14.20;99.90;;;14.35;100.00;98915.63;4934260;29;19966;-85
2023/09/22 02:49:03;;;;;;;;;;;14.20;99.90;;;14.34;100.00;98922.22;4969276;28;19918;-85
2023/09/22 02:51:29;;;;;;;;;;;14.20;99.90;;;14.41;100.00;98928.19;4941317;29;19919;-86
2023/09/22 02:53:55;;;;;;;;;;;14.30;99.90;;;14.44;100.00;98938.59;4972708;28;19917;-87
2023/09/22 02:56:21;;;;;;;;;;;14.30;99.90;;;14.46;100.00;98958.31;4956184;28;20369;-85
2023/09/22 02:58:48;;;;;;;;;;;14.30;99.90;;;14.45;100.00;98956.69;4946530;28;20040;-86
2023/09/22 03:01:14;;;;;;;;;;;14.30;99.90;;;14.35;100.00;98937.56;4955830;28;19918;-85
2023/09/22 03:03:43;;;;;;;;;;;14.30;99.90;;;14.35;100.00;98943.84;4972753;28;20232;-85
2023/09/22 03:06:12;;;;;;;;;;;14.20;99.90;;;14.37;100.00;98938.09;4972184;28;19925;-87
2023/09/22 03:08:39;;;;;;;;;;;14.20;99.90;;;14.37;100.00;98941.66;4924755;28;20283;-86
2023/09/22 03:11:05;;;;;;;;;;;14.20;99.90;;;14.39;100.00;98944.91;4972358;28;19938;-87
2023/09/22 03:13:31;;;;;;;;;;;14.30;99.90;;;14.40;100.00;98945.75;4945353;28;19922;-87
2023/09/22 03:15:57;;;;;;;;;;;14.20;99.90;;;14.39;100.00;98949.59;4930380;28;20500;-87
2023/09/22 03:18:24;;;;;;;;;;;14.20;99.90;;;14.39;100.00;98950.41;4949909;28;19930;-87
2023/09/22 03:20:49;;;;;;;;;;;14.20;99.90;;;14.39;100.00;98946.84;4939874;28;20384;-87
2023/09/22 03:23:16;;;;;;;;;;;14.20;99.90;;;14.35;100.00;98941.09;4954787;28;19918;-86
2023/09/22 03:25:44;;;;;;;;;;;14.20;99.90;;;14.35;100.00;98938.38;4971543;28;20381;-87
2023/09/22 03:28:10;;;;;;;;;;;14.20;99.90;;;14.38;100.00;98945.22;4950468;28;19961;-87
2023/09/22 03:30:36;;;;;;;;;;;14.20;99.90;;;14.34;100.00;98946.91;4933049;28;20361;-88
2023/09/22 03:33:02;;;;;;;;;;;14.20;99.90;;;14.30;100.00;98943.06;4928158;28;19918;-86
2023/09/22 03:35:28;;;;;;;;;;;14.20;99.90;;;14.36;100.00;98953.72;4953141;28;19918;-86
2023/09/22 03:37:55;;;;;;;;;;;14.20;99.90;;;14.27;100.00;98938.13;4966898;28;19918;-88
2023/09/22 03:40:30;;;;;;;;;;;14.20;99.90;;;14.34;100.00;98953.19;4947017;28;19918;-87
2023/09/22 03:42:58;;;;;;;;;;;14.20;99.90;;;14.17;100.00;98942.59;4955795;28;19918;-88
2023/09/22 03:45:24;;;;;;;;;;;14.10;99.90;;;14.19;100.00;98932.16;4972059;28;20025;-87
2023/09/22 03:47:50;;;;;;;;;;;14.00;99.90;;;14.08;100.00;98919.63;4972397;28;20360;-87
2023/09/22 03:50:15;;;;;;;;;;;14.00;99.90;;;14.03;100.00;98900.44;4955009;28;19918;-88
2023/09/22 03:52:42;;;;;;;;;;;13.90;99.90;;;13.97;100.00;98891.44;4971572;28;19922;-87
2023/09/22 03:55:09;;;;;;;;;;;13.80;99.90;;;13.80;100.00;98880.81;4968696;28;19918;-87
2023/09/22 03:57:35;;;;;;;;;;;13.70;99.90;;;13.77;100.00;98867.66;4955673;28;20337;-88
2023/09/22 04:00:01;;;;;;;;;;;13.70;99.90;;;13.79;100.00;98855.31;4930319;28;19918;-87
2023/09/22 04:02:28;;;;;;;;;;;13.70;99.90;;;13.84;100.00;98842.69;4972745;28;19973;-86
2023/09/22 04:04:54;;;;;;;;;;;13.70;99.90;;;13.82;100.00;98853.97;4968990;28;20366;-88
2023/09/22 04:07:19;;;;;;;;;;;13.60;99.90;;;13.58;100.00;98832.69;4972352;28;20097;-87
2023/09/22 04:09:45;;;;;;;;;;;13.60;99.90;;;13.62;100.00;98861.16;4938320;28;19918;-87
2023/09/22 04:12:11;;;;;;;;;;;13.50;99.90;;;13.56;100.00;98861.47;4955116;28;19922;-83
2023/09/22 04:14:37;;;;;;;;;;;13.40;99.90;;;13.56;100.00;98843.13;4951489;28;20422;-84
2023/09/22 04:17:03;;;;;;;;;;;13.40;99.90;;;13.53;100.00;98819.03;4971068;28;19926;-82
2023/09/22 04:19:33;;;;;;;;;;;;;;;13.64;100.00;98812.38;4971908;28;20326;-81
2023/09/22 04:22:00;;;;;;;;;;;13.40;99.90;;;13.64;100.00;98779.50;4972039;28;19922;-80
2023/09/22 04:24:31;;;;;;;;;;;13.50;99.90;;;13.73;100.00;98789.88;4971342;28;20017;-83
2023/09/22 04:27:00;;;;;;;;;;;13.50;99.90;;;13.68;100.00;98776.19;4970059;28;19918;-81
2023/09/22 04:29:26;;;;;;;;;;;13.50;99.90;;;13.83;100.00;98781.59;4971060;28;19918;-82
2023/09/22 04:31:52;;;;;;;;;;;13.60;99.90;;;13.84;100.00;98791.44;4955148;28;20293;-84
2023/09/22 04:34:20;;;;;;;;;;;13.60;99.90;;;13.89;100.00;98804.28;4953515;28;19918;-81
2023/09/22 04:36:46;;;;;;;;;;;13.70;99.90;;;13.95;100.00;98819.63;4970744;28;20208;-82
2023/09/22 04:39:14;;;;;;;;;;;13.70;99.90;;;13.98;100.00;98813.56;4970896;28;19925;-82
2023/09/22 04:41:40;;;;;;;;;;;13.80;99.90;;;13.93;100.00;98811.66;4970685;28;19918;-81
2023/09/22 04:44:07;;;;;;;;;;;13.80;99.90;;;13.95;100.00;98816.88;4971396;28;20008;-81
2023/09/22 04:46:33;;;;;;;;;;;13.80;99.90;;;13.92;100.00;98850.31;4970592;28;19922;-82
2023/09/22 04:48:59;;;;;;;;;;;13.70;99.90;;;13.80;100.00;98867.13;4971689;28;19922;-82
2023/09/22 04:51:27;;;;;;;;;;;13.70;99.90;;;13.80;100.00;98884.38;4953530;28;19964;-81
2023/09/22 04:53:53;;;;;;;;;;;13.60;99.90;;;13.77;100.00;98887.69;4969051;28;20365;-82
2023/09/22 04:56:20;;;;;;;;;;;13.60;99.90;;;13.69;100.00;98891.00;4970661;28;19972;-82
2023/09/22 04:58:47;;;;;;;;;;;13.50;99.90;;;13.53;100.00;98882.03;4950827;29;19926;-83
2023/09/22 05:01:14;;;;;;;;;;;13.40;99.90;;;13.57;100.00;98879.53;4969332;28;19922;-83
2023/09/22 05:03:40;;;;;;;;;;;13.40;99.90;;;13.58;100.00;98881.19;4970933;28;19930;-84
2023/09/22 05:06:09;;;;;;;;;;;13.40;99.90;;;13.59;100.00;98861.72;4955160;28;20315;-82
2023/09/22 05:08:38;;;;;;;;;;;13.50;99.90;;;13.62;100.00;98865.81;4969956;28;19918;-83
2023/09/22 05:11:08;;;;;;;;;;;13.50;99.90;;;13.66;100.00;98866.91;4968979;28;19925;-85
2023/09/22 05:13:35;;;;;;;;;;;13.50;99.90;;;13.64;100.00;98858.97;4968034;28;19918;-85
2023/09/22 05:16:05;;;;;;;;;;;13.50;99.90;;;13.69;100.00;98876.47;4953561;28;19918;-82
2023/09/22 05:18:30;;;;;;;;;;;13.50;99.90;;;13.73;100.00;98877.56;4952817;28;20056;-85
2023/09/22 05:20:59;;;;;;;;;;;13.50;99.90;;;13.73;100.00;98905.78;4971530;28;20091;-81
2023/09/22 05:23:25;;;;;;;;;;;13.50;99.90;;;13.72;100.00;98914.28;4947294;28;19918;-83
2023/09/22 05:25:51;;;;;;;;;;;13.50;99.90;;;13.76;100.00;98918.09;4964536;28;19988;-83
2023/09/22 05:28:16;;;;;;;;;;;13.60;99.90;;;13.75;100.00;98930.16;4971861;28;19937;-82
2023/09/22 05:30:42;;;;;;;;;;;13.60;99.90;;;13.79;100.00;98959.47;4932663;28;19957;-84
2023/09/22 05:33:08;;;;;;;;;;;13.70;99.90;;;13.79;100.00;98969.59;4952224;28;19964;-85
2023/09/22 05:35:37;;;;;;;;;;;13.70;99.90;;;13.90;100.00;98997.81;4971255;28;19914;-82
2023/09/22 05:38:04;;;;;;;;;;;13.80;99.90;;;13.99;100.00;99011.75;4954542;28;19925;-85
2023/09/22 05:40:34;;;;;;;;;;;13.90;99.90;;;14.01;100.00;99023.25;4951327;29;19990;-84
2023/09/22 05:43:10;;;;;;;;;;;14.00;99.90;;;14.07;100.00;99055.06;4970514;28;19965;-80
2023/09/22 05:45:36;;;;;;;;;;;14.00;99.90;;;14.14;100.00;99071.19;4971498;28;19933;-88
2023/09/22 05:48:02;;;;;;;;;;;14.10;99.90;;;14.12;100.00;99079.72;4974652;28;19922;-83
2023/09/22 05:50:28;;;;;;;;;;;14.10;99.90;;;14.00;100.00;99085.50;4968473;28;19972;-83
2023/09/22 05:52:54;;;;;;;;;;;14.10;99.90;;;14.14;100.00;99124.13;4951980;28;19921;-82
2023/09/22 05:55:20;;;;;;;;;;;14.20;99.90;;;14.23;100.00;99130.69;4958974;28;19952;-82
2023/09/22 05:57:46;;;;;;;;;;;14.20;99.90;;;14.30;100.00;99148.78;4975675;28;20004;-84
2023/09/22 06:00:17;;;;;;;;;;;14.30;99.90;;;14.39;100.00;99169.06;4975448;28;19946;-83
2023/09/22 06:02:50;;;;;;;;;;;14.30;99.90;;;14.35;100.00;99178.97;4974774;28;19922;-83
2023/09/22 06:05:17;;;;;;;;;;;14.40;99.90;;;14.46;100.00;99183.31;4982161;28;19918;-82
2023/09/22 06:07:44;;;;;;;;;;;14.40;99.90;;;14.52;100.00;99212.38;4975218;28;19918;-82
2023/09/22 06:10:10;;;;;;;;;;;14.50;99.90;;;14.62;100.00;99228.00;4973901;28;20011;-83
2023/09/22 06:12:36;;;;;;;;;;;14.60;99.90;;;14.64;100.00;99225.78;4975381;28;19918;-83
2023/09/22 06:15:07;;;;;;;;;;;14.70;99.90;;;14.69;100.00;99233.19;4974218;28;19961;-82
2023/09/22 06:17:36;;;;;;;;;;;14.80;99.90;;;14.78;100.00;99248.00;4974269;28;19957;-84
2023/09/22 06:20:13;;;;;;;;;;;14.80;99.90;;;14.90;100.00;99268.84;4974015;28;20016;-85
2023/09/22 06:22:41;;;;;;;;;;;14.80;99.90;;;14.92;100.00;99275.69;4974599;28;19922;-83
2023/09/22 06:25:08;;;;;;;;;;;14.90;99.90;;;15.02;100.00;99269.34;4972653;28;19925;-82
2023/09/22 06:27:33;;;;;;;;;;;15.00;99.90;;;15.05;100.00;99271.53;4972049;28;19968;-79
2023/09/22 06:30:00;;;;;;;;;;;15.00;99.90;;;15.16;100.00;99277.00;4971739;28;19953;-80
2023/09/22 06:32:26;;;;;;;;;;;15.10;99.90;;;15.14;100.00;99259.97;4952462;28;19918;-83
2023/09/22 06:34:53;;;;;;;;;;;15.10;99.90;;;15.26;100.00;99267.91;4967491;28;19976;-83
2023/09/22 06:37:19;;;;;;;;;;;15.10;99.90;;;15.22;100.00;99253.91;4968156;28;19945;-84
2023/09/22 06:39:46;;;;;;;;;;;15.10;99.90;;;15.10;100.00;99233.06;4949726;28;19936;-84
2023/09/22 06:42:11;;;;;;;;;;;15.10;99.90;;;15.22;100.00;99273.94;4967004;28;19956;-84
2023/09/22 06:44:39;;;;;;;;;;;15.10;99.90;;;15.27;100.00;99259.34;4967643;28;21819;-83
2023/09/22 06:47:05;;;;;;;;;;;15.10;99.90;;;15.34;100.00;99265.38;4969375;28;19925;-83
2023/09/22 06:49:35;;;;;;;;;;;15.20;99.90;;;15.41;100.00;99261.50;4969406;28;20394;-83
2023/09/22 06:52:01;;;;;;;;;;;15.30;99.90;;;15.39;100.00;99273.59;4953863;28;19922;-83
2023/09/22 06:54:26;;;;;;;;;;;15.40;99.90;;;15.66;100.00;99301.75;4970702;28;19925;-83
2023/09/22 06:56:54;;;;;;;;;;;15.50;99.90;;;15.68;100.00;99289.38;4953228;28;19933;-84
2023/09/22 06:59:21;;;;;;;;;;;15.60;99.90;;;15.84;100.00;99304.97;4954127;28;20211;-83
2023/09/22 07:01:48;;;;;;;;;;;;;;;16.14;100.00;99331.44;4971028;28;19926;-83
2023/09/22 07:04:14;;;;;;;;;;;;;;;16.32;100.00;99338.22;4970967;28;19949;-82
2023/09/22 07:06:41;;;;;;;;;;;;;;;16.36;100.00;99319.19;4958803;28;20298;-83
2023/09/22 07:09:11;;;;;;;;;;;15.70;99.90;;;16.25;100.00;99322.03;4977395;28;19922;-84
2023/09/22 07:11:40;;;;;;;;;;;16.30;99.90;;;16.08;100.00;99303.19;4971171;28;19933;-85
2023/09/22 07:14:09;;;;;;;;;;;16.20;99.90;;;16.10;100.00;99314.72;4969844;28;20633;-85
2023/09/22 07:16:35;;;;;;;;;;;16.10;99.90;;;16.07;100.00;99318.03;4953906;28;19922;-85
2023/09/22 07:19:01;;;;;;;;;;;16.10;99.90;;;16.18;100.00;99338.03;4970607;28;19965;-84
2023/09/22 07:21:28;;;;;;;;;;;16.10;99.90;;;16.10;100.00;99322.13;4970801;28;19918;-85
2023/09/22 07:23:55;;;;;;;;;;;16.20;99.90;;;16.34;100.00;99357.19;4938731;28;19922;-83
2023/09/22 07:26:22;;;;;;;;;;;16.30;99.90;;;16.40;100.00;99372.53;4958977;28;20037;-84
2023/09/22 07:28:48;;;;;;;;;;;16.30;99.90;;;16.25;100.00;99385.31;4970430;28;19922;-83
2023/09/22 07:31:18;;;;;;;;;;;16.40;99.90;;;16.22;100.00;99383.13;4965787;28;20309;-83
2023/09/22 07:33:44;;;;;;;;;;;16.30;99.90;;;16.02;100.00;99361.25;4970757;28;20358;-85
2023/09/22 07:36:10;;;;;;;;;;;16.30;99.90;;;16.16;100.00;99378.75;4969065;28;19930;-84
2023/09/22 07:38:36;;;;;;;;;;;16.20;99.90;;;16.19;100.00;99364.44;4971190;28;19918;-82
2023/09/22 07:41:02;;;;;;;;;;;16.30;99.90;;;16.33;100.00;99358.28;4970645;28;19961;-83
2023/09/22 07:43:30;;;;;;;;;;;16.40;99.90;;;16.32;100.00;99356.66;4970281;28;20313;-84
2023/09/22 07:45:57;;;;;;;;;;;16.40;99.90;;;16.31;100.00;99366.00;4970529;28;19992;-82
2023/09/22 07:48:23;;;;;;;;;;;16.40;99.90;;;16.42;100.00;99364.00;4970003;28;19921;-85
2023/09/22 07:50:48;;;;;;;;;;;16.50;99.90;;;16.54;100.00;99362.53;4969871;28;20274;-83
2023/09/22 07:53:14;;;;;;;;;;;16.60;99.90;;;16.62;100.00;99349.25;4969009;28;20283;-83
2023/09/22 07:55:41;;;;;;;;;;;16.70;99.90;;;17.01;100.00;99364.03;4968673;28;20338;-82
2023/09/22 07:58:09;;;;;;;;;;;17.00;99.90;;;17.01;100.00;99367.63;4967094;28;20294;-82
2023/09/22 08:00:35;;;;;;;;;;;17.20;99.90;;;17.45;100.00;99382.31;4949173;29;20279;-82
2023/09/22 08:03:01;;;;;;;;;;;17.40;99.90;;;17.44;100.00;99377.09;4968948;28;20298;-82
2023/09/22 08:05:27;;;;;;;;;;;17.50;99.90;;;17.44;100.00;99410.16;4970546;28;19922;-84
2023/09/22 08:07:53;;;;;;;;;;;17.50;99.90;;;17.29;100.00;99419.41;4972117;28;20418;-82
2023/09/22 08:10:22;;;;;;;;;;;17.40;99.90;;;17.18;100.00;99433.31;4970948;28;19938;-83
2023/09/22 08:12:48;;;;;;;;;;;17.20;99.90;;;16.83;100.00;99422.31;4968839;28;20293;-83
2023/09/22 08:15:14;;;;;;;;;;;17.00;99.90;;;16.66;100.00;99430.97;4972406;28;19914;-82
2023/09/22 08:17:45;;;;;;;;;;;16.80;99.90;;;16.63;100.00;99436.22;4972016;28;19925;-82
2023/09/22 08:20:15;;;;;;;;;;;16.70;99.90;;;16.54;100.00;99422.25;4967700;28;19918;-81
2023/09/22 08:22:42;;;;;;;;;;;16.50;99.90;;;16.54;100.00;99425.84;4968311;28;20386;-81
2023/09/22 08:25:09;;;;;;;;;;;16.50;99.90;;;16.54;100.00;99428.59;4971774;28;19925;-80
2023/09/22 08:27:36;;;;;;;;;;;16.50;99.90;;;16.56;100.00;99436.53;4955082;28;19918;-80
2023/09/22 08:30:11;;;;;;;;;;;16.50;99.90;;;16.53;100.00;99467.41;4971374;28;19965;-80
2023/09/22 08:32:46;;;;;;;;;;;16.50;99.90;;;16.55;100.00;99459.69;4971749;28;19918;-82
2023/09/22 08:35:13;;;;;;;;;;;16.60;99.90;;;16.60;100.00;99454.16;4950413;28;19934;-79
2023/09/22 08:37:42;;;;;;;;;;;16.60;99.90;;;16.75;100.00;99460.66;4971862;28;20011;-81
2023/09/22 08:40:11;;;;;;;;;;;16.70;99.90;;;16.87;100.00;99458.38;4971067;28;19925;-79
2023/09/22 08:42:38;;;;;;;;;;;16.90;99.90;;;16.96;100.00;99455.78;4971758;28;20290;-80
2023/09/22 08:45:06;;;;;;;;;;;17.00;99.90;;;17.03;100.00;99453.56;4971030;28;19922;-80
2023/09/22 08:47:38;;;;;;;;;;;17.00;99.90;;;17.22;100.00;99450.06;4969992;28;19984;-78
2023/09/22 08:50:06;;;;;;;;;;;17.10;99.90;;;17.33;100.00;99443.38;4954905;28;19918;-79
2023/09/22 08:52:31;;;;;;;;;;;17.30;99.90;;;17.56;100.00;99446.44;4971132;28;20894;-78
2023/09/22 08:54:57;;;;;;;;;;;17.50;99.90;;;17.79;100.00;99443.97;4948907;28;20012;-78
2023/09/22 08:57:24;;;;;;;;;;;17.70;99.90;;;17.86;100.00;99449.94;4971217;28;19957;-80
2023/09/22 08:59:53;;;;;;;;;;;17.80;99.90;;;17.88;100.00;99464.25;4971178;28;19918;-80
2023/09/22 09:02:20;;;;;;;;;;;17.90;99.90;;;17.76;100.00;99467.44;4970700;28;19918;-83
2023/09/22 09:04:45;;;;;;;;;;;17.90;99.90;;;17.79;100.00;99452.25;4971252;28;20049;-80
2023/09/22 09:07:16;;;;;;;;;;;17.80;99.90;;;17.72;100.00;99440.72;4970707;28;19918;-80
2023/09/22 09:09:47;;;;;;;;;;;17.90;99.90;;;18.04;100.00;99444.78;4968103;28;19922;-80
2023/09/22 09:12:13;;;;;;;;;;;18.00;99.90;;;18.40;100.00;99444.28;4970867;28;19925;-80
2023/09/22 09:14:40;;;;;;;;;;;18.30;99.90;;;18.78;100.00;99457.25;4970074;28;19921;-80
2023/09/22 09:17:22;;;;;;;;;;;18.60;99.90;;;19.24;100.00;99472.25;4971651;28;19918;-80
2023/09/22 09:20:02;;;;;;;;;;;19.00;99.90;;;18.94;100.00;99477.94;4965261;28;19922;-80
2023/09/22 09:22:33;;;;;;;;;;;19.10;99.90;;;18.08;100.00;99474.22;4955985;28;20427;-80
2023/09/22 09:24:59;;;;;;;;;;;18.60;99.90;;;17.87;100.00;99481.91;4958096;28;20008;-80
2023/09/22 09:27:26;;;;;;;;;;;18.30;99.90;;;17.59;100.00;99484.44;4973840;28;19925;-80
2023/09/22 09:29:53;;;;;;;;;;;17.90;99.90;;;17.26;100.00;99484.22;4956294;28;20059;-80
2023/09/22 09:32:23;;;;;;;;;;;17.60;99.90;;;17.16;100.00;99481.56;4956371;28;20321;-79
2023/09/22 09:34:49;;;;;;;;;;;17.30;99.90;;;17.05;100.00;99464.28;4972713;28;19918;-79
2023/09/22 09:37:14;;;;;;;;;;;17.20;99.90;;;17.00;100.00;99451.41;4972995;28;19918;-82
2023/09/22 09:39:56;;;;;;;;;;;17.10;99.90;;;17.10;100.00;99456.81;4973606;28;20501;-79
2023/09/22 09:42:23;;;;;;;;;;;17.10;99.90;;;17.11;100.00;99444.66;4968057;28;19926;-79
2023/09/22 09:44:54;;;;;;;;;;;17.10;99.90;;;17.21;100.00;99441.00;4974999;28;19918;-79
2023/09/22 09:47:22;;;;;;;;;;;17.20;99.90;;;17.34;100.00;99442.25;4973964;28;19922;-79
2023/09/22 09:49:52;;;;;;;;;;;17.30;99.90;;;17.80;100.00;99445.59;4974721;28;19942;-79
2023/09/22 09:52:24;;;;;;;;;;;17.60;99.90;;;18.29;100.00;99448.28;4974204;28;19918;-78
2023/09/22 09:55:02;;;;;;;;;;;18.00;99.90;;;19.02;100.00;99450.81;4973984;28;20067;-77
2023/09/22 09:57:29;;;;;;;;;;;;;;;20.01;100.00;99455.31;4974355;28;19918;-78
2023/09/22 09:59:55;;;;;;;;;;;;;;;20.39;100.00;99460.56;4958642;28;19918;-80
2023/09/22 10:02:22;;;;;;;;;;;;;;;20.36;100.00;99453.72;4965531;28;19925;-78
2023/09/22 10:04:49;;;;;;;;;;;;;;;20.62;100.00;99464.19;4972059;28;19922;-79
2023/09/22 10:07:15;;;;;;;;;;;;;;;20.41;100.00;99461.06;4974479;28;19946;-78
2023/09/22 10:09:41;;;;;;;;;;;18.70;99.90;;;19.97;100.00;99457.88;4974130;28;19921;-79
2023/09/22 10:12:07;;;;;;;;;;;20.40;99.90;;;19.75;100.00;99445.53;4926369;28;20369;-78
2023/09/22 10:14:44;;;;;;;;;;;20.10;99.90;;;19.94;100.00;99458.50;4974007;28;20297;-80
2023/09/22 10:17:24;;;;;;;;;;;20.10;99.90;;;20.31;100.00;99475.16;4974041;28;19918;-80
2023/09/22 10:19:50;;;;;;;;;;;20.30;99.90;;;20.31;100.00;99477.91;4974031;28;19922;-81
2023/09/22 10:22:16;;;;;;;;;;;20.50;99.90;;;20.17;100.00;99470.47;4974039;28;19980;-81
2023/09/22 10:24:42;;;;;;;;;;;20.30;99.90;;;20.08;100.00;99461.25;4973611;28;19926;-80
2023/09/22 10:27:13;;;;;;;;;;;;;;;21.74;100.00;99451.66;4974402;28;19918;-81
2023/09/22 10:29:41;;;;;;;;;;;;;;;22.41;99.93;99461.63;4956604;28;19925;-81
2023/09/22 10:32:16;;;;;;;;;;;;;;;22.59;95.73;99475.56;4956493;28;19946;-81
2023/09/22 10:34:53;;;;;;;;;;;;;;;23.41;85.10;99483.16;4969008;28;19929;-81
2023/09/22 10:37:20;;;;;;;;;;;;;;;22.72;87.51;99503.53;4972984;28;20013;-81
2023/09/22 10:39:51;;;;;;;;;;;;;;;22.23;90.22;99496.06;4973372;28;19925;-82
2023/09/22 10:42:17;;;;;;;;;;;;;;;21.70;92.49;99482.03;4972967;28;19974;-81
2023/09/22 10:44:58;;;;;;;;;;;;;;;22.08;92.55;99477.91;4949593;28;19925;-82
2023/09/22 10:47:45;;;;;;;;;;;;;;;21.72;92.15;99474.22;4973896;28;20382;-83
2023/09/22 10:50:14;;;;;;;;;;;;;;;21.33;96.04;99481.31;4966173;28;19949;-84
2023/09/22 10:52:41;;;;;;;;;;;;;;;21.04;95.21;99466.81;4955932;28;19918;-82
2023/09/22 10:55:07;;;;;;;;;;;;;;;22.63;86.71;99478.50;4973721;28;19956;-81
2023/09/22 10:57:36;;;;;;;;;;;;;;;24.66;71.74;99470.19;4973164;28;20297;-80
2023/09/22 11:00:10;;;;;;;;;;;;;;;25.74;61.68;99464.84;4973642;28;19942;-82
2023/09/22 11:02:36;;;;;;;;;;;;;;;26.20;57.77;99473.13;4973571;28;19918;-81
2023/09/22 11:05:05;;;;;;;;;;;;;;;27.03;57.44;99471.16;4949377;28;19918;-81
2023/09/22 11:07:32;;;;;;;;;;;;;;;27.82;49.55;99466.81;4972319;28;19918;-82
2023/09/22 11:09:59;;;;;;;;;;;;;;;25.82;57.42;99479.88;4973062;28;19922;-81
2023/09/22 11:12:29;;;;;;;;;;;;;;;25.99;63.36;99484.41;4973002;28;19969;-82
2023/09/22 11:14:55;;;;;;;;;;;;;;;26.59;54.23;99477.47;4968863;28;20008;-80
2023/09/22 11:17:22;;;;;;;;;;;;;;;25.69;56.78;99468.69;4974937;28;19957;-85
2023/09/22 11:19:52;;;;;;;;;;;;;;;24.38;66.17;99485.50;4973299;28;20023;-83